Time;durP1;ratioP1;P1;durP2;ratioP2;P2;SDS_P1;SDS_P2;PMS_P1;PMS_P2;Temp;Humidity;BMP_temperature;BMP_pressure;BME280_temperature;BME280_humidity;BME280_pressure;Samples;Min_cycle;Max_cycle;Signal;HPM_P1;HPM_P2
2023/12/24 00:00:11;;;;;;;;;;;;;;;4.77;71.76;99616.81;5464180;32;35205;-73
2023/12/24 00:03:13;;;;;;;;;;;;;;;5.74;68.01;99621.78;5461137;32;34778;-72
2023/12/24 00:06:15;;;;;;;;;;;;;;;5.04;69.21;99622.16;5466320;32;34371;-70
2023/12/24 00:09:17;;;;;;;;;;;;;;;4.84;70.82;99614.91;5461219;32;35673;-69
2023/12/24 00:12:19;;;;;;;;;;;;;;;4.77;70.93;99631.59;5466289;32;34733;-71
2023/12/24 00:15:22;;;;;;;;;;;;;;;5.97;66.27;99625.38;5461707;32;35441;-72
2023/12/24 00:18:24;;;;;;;;;;;;;;;5.20;68.24;99628.59;5431350;32;34779;-71
2023/12/24 00:21:28;;;;;;;;;;;;;;;4.73;70.09;99636.00;5464530;32;36302;-70
2023/12/24 00:24:30;;;;;;;;;;;;;;;4.52;71.69;99629.63;5461374;32;34969;-69
2023/12/24 00:27:32;;;;;;;;;;;;;;;4.65;71.81;99632.78;5451038;32;34652;-69
2023/12/24 00:30:35;;;;;;;;;;;;;;;3.72;76.45;99632.50;5445163;32;34816;-73
2023/12/24 00:33:37;;;;;;;;;;;;;;;4.30;75.70;99633.69;5464202;32;34799;-72
2023/12/24 00:36:39;;;;;;;;;;;;;;;4.29;74.08;99640.63;5446247;32;34787;-72
2023/12/24 00:39:41;;;;;;;;;;;;;;;4.68;73.60;99657.84;5441342;32;34314;-70
2023/12/24 00:42:44;;;;;;;;;;;;;;;4.24;73.85;99657.25;5456594;32;35376;-71
2023/12/24 00:45:47;;;;;;;;;;;;;;;5.33;70.29;99655.16;5461203;32;34345;-72
2023/12/24 00:48:50;;;;;;;;;;;;;;;4.98;71.34;99658.78;5464328;32;34142;-69
2023/12/24 00:51:53;;;;;;;;;;;;;;;5.49;69.24;99656.41;5458313;32;35140;-69
2023/12/24 00:54:55;;;;;;;;;;;;;;;5.55;67.74;99669.28;5463802;32;35562;-69
2023/12/24 00:57:57;;;;;;;;;;;;;;;4.55;71.34;99681.59;5460491;32;35114;-71
2023/12/24 01:00:59;;;;;;;;;;;;;;;4.30;74.07;99689.16;5441696;32;35427;-73
2023/12/24 01:04:01;;;;;;;;;;;;;;;4.92;71.69;99696.25;5465117;32;34428;-69
2023/12/24 01:07:04;;;;;;;;;;;;;;;4.61;70.83;99685.78;5463119;32;34508;-72
2023/12/24 01:10:06;;;;;;;;;;;;;;;4.65;70.90;99697.84;5468289;32;34970;-71
2023/12/24 01:13:08;;;;;;;;;;;;;;;4.13;72.51;99709.53;5463234;32;34301;-72
2023/12/24 01:16:11;;;;;;;;;;;;;;;3.85;74.62;99722.28;5467755;32;34776;-71
2023/12/24 01:19:13;;;;;;;;;;;;;;;3.83;75.10;99716.28;5462435;32;34496;-70
2023/12/24 01:22:15;;;;;;;;;;;;;;;4.10;74.58;99720.00;5462602;32;35014;-70
2023/12/24 01:25:17;;;;;;;;;;;;;;;4.19;74.19;99716.34;5467954;32;36155;-68
2023/12/24 01:28:19;;;;;;;;;;;;;;;4.23;73.71;99720.56;5462100;32;35400;-72
2023/12/24 01:31:22;;;;;;;;;;;;;;;4.29;73.12;99723.88;5453186;32;35407;-71
2023/12/24 01:34:24;;;;;;;;;;;;;;;4.27;73.81;99707.47;5463075;32;34879;-69
2023/12/24 01:37:26;;;;;;;;;;;;;;;4.32;73.82;99710.81;5467261;32;35434;-69
2023/12/24 01:40:28;;;;;;;;;;;;;;;4.09;73.96;99715.69;5442802;32;35125;-71
2023/12/24 01:43:30;;;;;;;;;;;;;;;3.89;76.07;99718.75;5460093;32;34647;-70
2023/12/24 01:46:32;;;;;;;;;;;;;;;3.98;77.14;99709.88;5452705;32;34795;-72
2023/12/24 01:49:34;;;;;;;;;;;;;;;4.40;74.45;99714.97;5461998;32;34885;-72
2023/12/24 01:52:37;;;;;;;;;;;;;;;4.28;74.75;99722.16;5450122;32;34955;-71
2023/12/24 01:55:39;;;;;;;;;;;;;;;4.77;72.75;99707.94;5447610;32;35025;-71
2023/12/24 01:58:41;;;;;;;;;;;;;;;4.53;71.95;99713.78;5448702;32;35426;-70
2023/12/24 02:01:44;;;;;;;;;;;;;;;3.93;74.20;99715.22;5448323;32;35586;-68
2023/12/24 02:04:46;;;;;;;;;;;;;;;3.67;75.62;99708.00;5449017;32;36485;-71
2023/12/24 02:07:48;;;;;;;;;;;;;;;3.72;76.75;99713.91;5467319;32;35855;-69
2023/12/24 02:10:50;;;;;;;;;;;;;;;3.88;75.91;99718.78;5435660;32;35480;-71
2023/12/24 02:13:52;;;;;;;;;;;;;;;3.27;78.76;99718.34;5466712;32;35516;-70
2023/12/24 02:16:55;;;;;;;;;;;;;;;3.82;77.58;99705.94;5462161;32;34940;-70
2023/12/24 02:19:57;;;;;;;;;;;;;;;4.18;76.08;99709.41;5452494;32;34527;-71
2023/12/24 02:22:59;;;;;;;;;;;;;;;3.55;77.28;99712.59;5429046;32;35074;-71
2023/12/24 02:26:03;;;;;;;;;;;;;;;4.15;77.58;99712.94;5460856;32;35432;-72
2023/12/24 02:29:08;;;;;;;;;;;;;;;4.73;74.20;99711.50;5422303;32;847281;-69
2023/12/24 02:32:14;;;;;;;;;;;;;;;5.00;73.78;99719.47;5441244;32;34447;-73
2023/12/24 02:35:17;;;;;;;;;;;;;;;5.19;72.02;99715.47;5467455;32;35601;-73
2023/12/24 02:38:19;;;;;;;;;;;;;;;5.50;70.62;99717.22;5435027;32;35019;-72
2023/12/24 02:41:21;;;;;;;;;;;;;;;5.25;70.45;99707.50;5450484;32;35359;-69
2023/12/24 02:44:23;;;;;;;;;;;;;;;4.96;71.49;99704.81;5463625;32;35388;-69
2023/12/24 02:47:25;;;;;;;;;;;;;;;5.21;71.08;99716.28;5445400;32;34231;-69
2023/12/24 02:50:28;;;;;;;;;;;;;;;4.75;73.05;99724.47;5466563;32;34493;-71
2023/12/24 02:53:30;;;;;;;;;;;;;;;5.01;72.57;99716.81;5440356;32;34312;-69
2023/12/24 02:56:36;;;;;;;;;;;;;;;5.18;71.48;99711.16;5450019;32;35090;-69
2023/12/24 02:59:39;;;;;;;;;;;;;;;5.40;71.00;99714.00;5462679;32;35361;-69
2023/12/24 03:02:41;;;;;;;;;;;;;;;4.77;72.80;99717.50;5464191;32;34662;-72
2023/12/24 03:05:43;;;;;;;;;;;;;;;4.34;74.38;99715.97;5465556;32;34938;-71
2023/12/24 03:08:45;;;;;;;;;;;;;;;5.07;73.57;99715.81;5461583;32;34539;-69
2023/12/24 03:11:48;;;;;;;;;;;;;;;4.78;73.57;99716.59;5466540;32;35144;-71
2023/12/24 03:14:50;;;;;;;;;;;;;;;5.21;70.94;99716.28;5445122;32;34504;-69
2023/12/24 03:17:52;;;;;;;;;;;;;;;4.81;71.37;99706.09;5466832;32;35211;-70
2023/12/24 03:20:54;;;;;;;;;;;;;;;5.20;71.42;99713.72;5461648;32;34415;-70
2023/12/24 03:23:56;;;;;;;;;;;;;;;5.25;70.53;99706.63;5463226;32;34312;-71
2023/12/24 03:26:59;;;;;;;;;;;;;;;5.15;70.93;99704.31;5448659;32;35184;-71
2023/12/24 03:30:01;;;;;;;;;;;;;;;4.75;72.28;99707.09;5462333;32;35156;-69
2023/12/24 03:33:03;;;;;;;;;;;;;;;5.04;71.94;99713.31;5465893;32;34912;-69
2023/12/24 03:36:09;;;;;;;;;;;;;;;4.87;72.95;99718.94;5461507;32;34934;-69
2023/12/24 03:39:11;;;;;;;;;;;;;;;4.99;72.29;99715.16;5466156;32;34746;-69
2023/12/24 03:42:13;;;;;;;;;;;;;;;4.97;72.23;99710.00;5460611;32;35732;-69
2023/12/24 03:45:15;;;;;;;;;;;;;;;4.78;72.86;99714.84;5462547;32;34729;-71
2023/12/24 03:48:17;;;;;;;;;;;;;;;4.58;74.17;99706.72;5465712;32;34825;-72
2023/12/24 03:51:20;;;;;;;;;;;;;;;4.68;74.96;99708.16;5458595;32;34718;-68
2023/12/24 03:54:22;;;;;;;;;;;;;;;4.85;73.23;99702.53;5443704;32;34926;-71
2023/12/24 03:57:24;;;;;;;;;;;;;;;4.96;73.16;99720.44;5460715;32;34942;-70
2023/12/24 04:00:26;;;;;;;;;;;;;;;4.97;73.79;99717.81;5466679;32;34882;-71
2023/12/24 04:03:28;;;;;;;;;;;;;;;4.81;73.50;99717.34;5460836;32;34848;-70
2023/12/24 04:06:31;;;;;;;;;;;;;;;4.51;75.29;99720.78;5461572;32;34770;-73
2023/12/24 04:09:34;;;;;;;;;;;;;;;4.61;74.96;99707.47;5466575;32;35358;-70
2023/12/24 04:12:36;;;;;;;;;;;;;;;4.38;76.11;99716.72;5460673;32;35015;-70
2023/12/24 04:15:38;;;;;;;;;;;;;;;4.68;75.86;99702.94;5466145;32;35041;-69
2023/12/24 04:18:40;;;;;;;;;;;;;;;4.47;76.67;99706.97;5459053;32;35010;-69
2023/12/24 04:21:43;;;;;;;;;;;;;;;4.23;77.12;99715.38;5465540;32;35133;-72
2023/12/24 04:24:45;;;;;;;;;;;;;;;4.05;77.82;99714.03;5447364;32;34363;-68
2023/12/24 04:27:47;;;;;;;;;;;;;;;4.19;78.76;99700.75;5439767;32;34112;-70
2023/12/24 04:30:49;;;;;;;;;;;;;;;4.30;78.06;99696.13;5454058;32;35373;-70
2023/12/24 04:33:51;;;;;;;;;;;;;;;4.35;77.94;99694.25;5460659;32;34956;-72
2023/12/24 04:36:54;;;;;;;;;;;;;;;4.31;77.51;99690.00;5465168;32;34510;-71
2023/12/24 04:39:56;;;;;;;;;;;;;;;4.23;77.98;99686.75;5459850;32;34910;-72
2023/12/24 04:42:58;;;;;;;;;;;;;;;4.40;77.80;99687.19;5444514;32;35723;-72
2023/12/24 04:46:00;;;;;;;;;;;;;;;4.38;78.05;99685.50;5445480;32;34614;-71
2023/12/24 04:49:02;;;;;;;;;;;;;;;4.32;78.47;99692.59;5446442;32;35054;-72
2023/12/24 04:52:05;;;;;;;;;;;;;;;4.58;77.79;99681.53;5452826;32;34557;-69
2023/12/24 04:55:07;;;;;;;;;;;;;;;4.69;76.87;99685.59;5458775;32;34354;-68
2023/12/24 04:58:09;;;;;;;;;;;;;;;4.85;76.36;99690.34;5465231;32;35876;-71
2023/12/24 05:01:13;;;;;;;;;;;;;;;5.00;75.54;99685.62;5460157;32;34271;-69
2023/12/24 05:04:16;;;;;;;;;;;;;;;5.08;74.90;99666.28;5465252;32;34460;-72
2023/12/24 05:07:18;;;;;;;;;;;;;;;5.01;75.07;99664.75;5460633;32;35016;-71
2023/12/24 05:10:20;;;;;;;;;;;;;;;4.89;75.34;99665.06;5446514;32;35418;-72
2023/12/24 05:13:23;;;;;;;;;;;;;;;5.07;75.37;99675.00;5450374;32;34278;-69
2023/12/24 05:16:25;;;;;;;;;;;;;;;5.01;75.51;99669.94;5446098;32;35004;-72
2023/12/24 05:19:27;;;;;;;;;;;;;;;5.26;74.20;99656.22;5465650;32;35022;-69
2023/12/24 05:22:29;;;;;;;;;;;;;;;4.85;75.23;99669.53;5459403;32;35060;-69
2023/12/24 05:25:31;;;;;;;;;;;;;;;5.14;75.14;99681.72;5464280;32;34793;-70
2023/12/24 05:28:33;;;;;;;;;;;;;;;5.24;74.48;99690.16;5460513;32;35385;-71
2023/12/24 05:31:39;;;;;;;;;;;;;;;5.39;74.03;99696.66;5459887;32;35362;-72
2023/12/24 05:34:42;;;;;;;;;;;;;;;5.29;74.67;99685.66;5465686;32;34976;-74
2023/12/24 05:37:46;;;;;;;;;;;;;;;4.99;75.98;99699.53;5459950;32;34685;-71
2023/12/24 05:40:48;;;;;;;;;;;;;;;5.42;74.17;99699.19;5464946;32;34668;-70
2023/12/24 05:43:50;;;;;;;;;;;;;;;5.08;74.61;99694.06;5459825;32;34378;-69
2023/12/24 05:46:53;;;;;;;;;;;;;;;4.74;76.15;99700.19;5447695;32;34987;-70
2023/12/24 05:49:55;;;;;;;;;;;;;;;4.72;76.62;99699.38;5445989;32;34765;-71
2023/12/24 05:52:57;;;;;;;;;;;;;;;4.47;77.78;99708.72;5425365;32;35240;-72
2023/12/24 05:56:00;;;;;;;;;;;;;;;4.31;79.12;99706.47;5463675;32;35048;-71
2023/12/24 05:59:02;;;;;;;;;;;;;;;4.53;79.10;99708.56;5462570;32;34756;-71
2023/12/24 06:02:04;;;;;;;;;;;;;;;4.58;77.70;99697.16;5452313;32;34701;-71
2023/12/24 06:05:06;;;;;;;;;;;;;;;4.77;78.71;99709.69;5463022;32;34327;-69
2023/12/24 06:08:09;;;;;;;;;;;;;;;4.77;77.85;99709.69;5464217;32;34738;-70
2023/12/24 06:11:14;;;;;;;;;;;;;;;4.79;77.33;99711.34;5465308;32;35346;-72
2023/12/24 06:14:16;;;;;;;;;;;;;;;4.94;77.68;99714.44;5441590;32;34183;-70
2023/12/24 06:17:19;;;;;;;;;;;;;;;5.23;76.68;99714.50;5459265;32;35525;-70
2023/12/24 06:20:21;;;;;;;;;;;;;;;5.30;75.77;99707.38;5448361;32;34708;-70
2023/12/24 06:23:23;;;;;;;;;;;;;;;5.48;75.23;99708.59;5465617;32;35165;-71
2023/12/24 06:26:26;;;;;;;;;;;;;;;5.11;76.16;99714.84;5462237;32;35186;-73
2023/12/24 06:29:28;;;;;;;;;;;;;;;5.55;76.62;99717.94;5464142;32;35439;-72
2023/12/24 06:32:30;;;;;;;;;;;;;;;6.05;75.44;99712.97;5465472;32;34969;-69
2023/12/24 06:35:32;;;;;;;;;;;;;;;6.17;74.63;99707.38;5442200;32;34643;-69
2023/12/24 06:38:34;;;;;;;;;;;;;;;6.57;73.35;99716.50;5466278;32;34716;-69
2023/12/24 06:41:37;;;;;;;;;;;;;;;6.64;73.83;99708.44;5461765;32;34468;-72
2023/12/24 06:44:42;;;;;;;;;;;;;;;6.21;76.02;99717.66;5446212;32;34508;-71
2023/12/24 06:47:44;;;;;;;;;;;;;;;6.81;73.60;99710.44;5456342;32;34915;-70
2023/12/24 06:50:47;;;;;;;;;;;;;;;7.02;74.03;99719.34;5471771;32;34742;-70
2023/12/24 06:53:52;;;;;;;;;;;;;;;7.46;71.97;99716.84;5467584;32;35476;-72
2023/12/24 06:56:54;;;;;;;;;;;;;;;6.88;75.06;99734.59;5444779;32;34783;-71
2023/12/24 06:59:56;;;;;;;;;;;;;;;7.00;73.12;99721.97;5467365;32;34863;-69
2023/12/24 07:02:58;;;;;;;;;;;;;;;6.78;75.51;99719.25;5460304;32;34464;-71
2023/12/24 07:06:00;;;;;;;;;;;;;;;6.80;74.80;99737.47;5454481;32;35312;-72
2023/12/24 07:09:05;;;;;;;;;;;;;;;7.31;74.58;99728.72;5461899;32;35644;-72
2023/12/24 07:12:07;;;;;;;;;;;;;;;6.97;75.16;99735.16;5461145;32;34653;-70
2023/12/24 07:15:09;;;;;;;;;;;;;;;7.29;75.14;99730.56;5467144;32;34579;-72
2023/12/24 07:18:12;;;;;;;;;;;;;;;7.73;72.98;99743.72;5440221;32;34688;-71
2023/12/24 07:21:14;;;;;;;;;;;;;;;7.07;74.45;99744.38;5450309;32;35971;-71
2023/12/24 07:24:16;;;;;;;;;;;;;;;7.50;73.31;99745.44;5441511;32;35015;-73
2023/12/24 07:27:21;;;;;;;;;;;;;;;7.67;71.12;99741.37;5457438;32;34586;-69
2023/12/24 07:30:23;;;;;;;;;;;;;;;8.58;68.69;99734.31;5441549;32;34801;-72
2023/12/24 07:33:25;;;;;;;;;;;;;;;8.31;68.49;99746.75;5459647;32;35017;-73
2023/12/24 07:36:28;;;;;;;;;;;;;;;7.72;70.13;99750.72;5465829;32;35628;-69
2023/12/24 07:39:30;;;;;;;;;;;;;;;8.07;69.66;99733.69;5462764;32;34692;-69
2023/12/24 07:42:32;;;;;;;;;;;;;;;8.63;67.33;99743.69;5465909;32;34952;-70
2023/12/24 07:45:34;;;;;;;;;;;;;;;8.63;66.60;99734.97;5462065;32;34897;-73
2023/12/24 07:48:37;;;;;;;;;;;;;;;8.88;66.40;99734.78;5464742;32;34280;-70
2023/12/24 07:51:39;;;;;;;;;;;;;;;9.05;64.46;99755.91;5471319;32;35203;-72
2023/12/24 07:54:41;;;;;;;;;;;;;;;8.42;67.05;99752.41;5468889;32;34378;-72
2023/12/24 07:57:43;;;;;;;;;;;;;;;8.56;66.77;99754.47;5456703;32;34785;-69
2023/12/24 08:00:45;;;;;;;;;;;;;;;9.13;64.82;99752.94;5461782;32;35566;-69
2023/12/24 08:03:47;;;;;;;;;;;;;;;8.74;65.49;99768.59;5465775;32;34113;-69
2023/12/24 08:06:51;;;;;;;;;;;;;;;9.08;63.26;99778.50;5460953;32;36213;-72
2023/12/24 08:09:57;;;;;;;;;;;;;;;8.82;64.56;99780.47;5464774;32;34717;-70
2023/12/24 08:12:59;;;;;;;;;;;;;;;8.67;65.18;99770.59;5462636;32;35707;-73
2023/12/24 08:16:13;;;;;;;;;;;;;;;8.47;65.99;99787.13;5461162;32;34646;-72
2023/12/24 08:19:15;;;;;;;;;;;;;;;8.55;66.09;99802.53;5444608;32;35078;-70
2023/12/24 08:22:17;;;;;;;;;;;;;;;8.87;65.44;99796.81;5452541;32;34736;-70
2023/12/24 08:25:20;;;;;;;;;;;;;;;9.45;63.50;99793.50;5465641;32;35078;-72
2023/12/24 08:28:22;;;;;;;;;;;;;;;9.44;63.37;99802.28;5460344;32;35106;-70
2023/12/24 08:31:24;;;;;;;;;;;;;;;8.72;65.61;99807.09;5462451;32;35430;-70
2023/12/24 08:34:26;;;;;;;;;;;;;;;8.50;66.83;99804.47;5464891;32;35306;-69
2023/12/24 08:37:29;;;;;;;;;;;;;;;8.04;69.09;99814.94;5461072;32;35648;-70
2023/12/24 08:40:31;;;;;;;;;;;;;;;8.81;67.06;99811.94;5451952;32;34817;-72
2023/12/24 08:43:33;;;;;;;;;;;;;;;8.73;66.53;99816.66;5460508;32;35973;-73
2023/12/24 08:46:35;;;;;;;;;;;;;;;9.04;65.52;99824.97;5465789;32;34409;-69
2023/12/24 08:49:37;;;;;;;;;;;;;;;8.56;67.98;99835.66;5458074;32;34994;-72
2023/12/24 08:52:40;;;;;;;;;;;;;;;9.90;63.48;99829.97;5457880;32;35045;-69
2023/12/24 08:55:42;;;;;;;;;;;;;;;10.24;62.20;99834.56;5478395;32;35659;-70
2023/12/24 08:58:44;;;;;;;;;;;;;;;9.61;63.41;99847.00;5445541;32;34678;-72
2023/12/24 09:01:49;;;;;;;;;;;;;;;9.80;63.88;99849.69;5449017;32;34741;-72
2023/12/24 09:04:51;;;;;;;;;;;;;;;9.68;64.41;99852.84;5452381;32;34342;-70
2023/12/24 09:07:53;;;;;;;;;;;;;;;10.54;61.97;99841.91;5464633;32;34979;-71
2023/12/24 09:10:55;;;;;;;;;;;;;;;10.62;61.83;99845.03;5460927;32;34820;-72
2023/12/24 09:13:58;;;;;;;;;;;;;;;10.33;63.14;99837.69;5460070;32;35393;-70
2023/12/24 09:17:00;;;;;;;;;;;;;;;10.67;62.65;99845.66;5463808;32;34974;-72
2023/12/24 09:20:02;;;;;;;;;;;;;;;10.90;61.83;99834.03;5439509;32;34852;-69
2023/12/24 09:23:07;;;;;;;;;;;;;;;10.88;61.05;99830.63;5438820;32;34232;-69
2023/12/24 09:26:10;;;;;;;;;;;;;;;11.09;60.41;99829.56;5460251;32;34311;-71
2023/12/24 09:29:12;;;;;;;;;;;;;;;11.30;59.56;99830.25;5466791;32;34398;-70
2023/12/24 09:32:14;;;;;;;;;;;;;;;11.24;59.90;99829.72;5447188;32;35368;-72
2023/12/24 09:35:16;;;;;;;;;;;;;;;10.69;61.56;99843.84;5463134;32;35343;-73
2023/12/24 09:38:18;;;;;;;;;;;;;;;10.85;61.22;99825.53;5450285;32;34822;-70
2023/12/24 09:41:20;;;;;;;;;;;;;;;10.37;61.87;99836.59;5462381;32;34371;-72
2023/12/24 09:44:23;;;;;;;;;;;;;;;10.34;62.15;99844.62;5466574;32;34649;-70
2023/12/24 09:47:26;;;;;;;;;;;;;;;9.72;64.70;99854.41;5461692;32;34224;-71
2023/12/24 09:50:28;;;;;;;;;;;;;;;9.32;65.29;99861.38;5475768;32;34803;-73
2023/12/24 09:53:30;;;;;;;;;;;;;;;10.03;63.92;99853.88;5461390;32;35006;-73
2023/12/24 09:56:32;;;;;;;;;;;;;;;9.75;64.75;99859.53;5460628;32;34313;-71
2023/12/24 09:59:34;;;;;;;;;;;;;;;10.63;62.39;99854.63;5467505;32;35195;-69
2023/12/24 10:02:37;;;;;;;;;;;;;;;9.78;63.66;99841.00;5445801;32;34378;-70
2023/12/24 10:05:57;;;;;;;;;;;;;;;10.18;62.43;99840.06;5467411;32;34787;-71
2023/12/24 10:08:59;;;;;;;;;;;;;;;10.57;62.84;99842.63;5446663;32;35095;-70
2023/12/24 10:12:03;;;;;;;;;;;;;;;10.82;61.52;99844.94;5463273;32;35455;-70
2023/12/24 10:15:06;;;;;;;;;;;;;;;9.74;64.30;99842.06;5444897;32;34951;-72
2023/12/24 10:18:14;;;;;;;;;;;;;;;10.79;61.40;99839.81;5458501;32;34667;-71
2023/12/24 10:21:17;;;;;;;;;;;;;;;10.40;62.87;99841.72;5452735;32;34661;-72
2023/12/24 10:24:19;;;;;;;;;;;;;;;10.18;63.73;99844.47;5461861;32;34786;-71
2023/12/24 10:27:21;;;;;;;;;;;;;;;10.05;63.31;99838.94;5465974;32;34870;-69
2023/12/24 10:30:24;;;;;;;;;;;;;;;10.54;62.33;99834.88;5441974;32;34816;-73
2023/12/24 10:33:26;;;;;;;;;;;;;;;11.12;60.61;99833.81;5460758;32;35542;-72
2023/12/24 10:36:28;;;;;;;;;;;;;;;10.25;61.25;99836.28;5465541;32;35068;-72
2023/12/24 10:39:30;;;;;;;;;;;;;;;10.46;61.10;99829.16;5440407;32;34647;-72
2023/12/24 10:42:32;;;;;;;;;;;;;;;10.35;61.60;99820.06;5459540;32;34185;-69
2023/12/24 10:45:35;;;;;;;;;;;;;;;10.62;60.90;99823.16;5442183;32;35014;-69
2023/12/24 10:48:37;;;;;;;;;;;;;;;10.23;61.53;99824.97;5462980;32;35724;-69
2023/12/24 10:51:40;;;;;;;;;;;;;;;10.24;62.33;99831.06;5459265;32;35127;-72
2023/12/24 10:54:42;;;;;;;;;;;;;;;10.38;61.67;99828.66;5460094;32;34319;-72
2023/12/24 10:58:11;;;;;;;;;;;;;;;10.26;62.26;99835.34;5450868;32;35082;-70
2023/12/24 11:01:13;;;;;;;;;;;;;;;10.27;62.77;99825.69;5458957;32;34142;-72
2023/12/24 11:04:34;;;;;;;;;;;;;;;10.58;61.96;99811.97;5466308;32;34265;-72
2023/12/24 11:07:54;;;;;;;;;;;;;;;10.24;62.34;99816.19;5460629;32;34689;-72
2023/12/24 11:10:57;;;;;;;;;;;;;;;9.70;63.87;99799.38;5461373;32;35799;-73
2023/12/24 11:13:59;;;;;;;;;;;;;;;10.01;63.07;99783.06;5466515;32;35069;-73
2023/12/24 11:17:02;;;;;;;;;;;;;;;10.29;62.24;99779.19;5461630;32;34482;-72
2023/12/24 11:20:16;;;;;;;;;;;;;;;10.44;62.62;99775.00;5466589;32;34311;-70
2023/12/24 11:23:19;;;;;;;;;;;;;;;9.91;63.98;99786.19;5460958;32;34576;-69
2023/12/24 11:26:27;;;;;;;;;;;;;;;9.71;64.87;99769.56;5448360;32;35411;-72
2023/12/24 11:29:48;;;;;;;;;;;;;;;9.65;65.78;99771.63;5465376;32;34873;-72
2023/12/24 11:32:51;;;;;;;;;;;;;;;9.73;65.48;99759.88;5460735;32;35216;-69
2023/12/24 11:35:54;;;;;;;;;;;;;;;10.08;64.47;99765.25;5435389;32;35527;-71
2023/12/24 11:38:56;;;;;;;;;;;;;;;10.11;64.07;99772.13;5461721;32;34785;-71
2023/12/24 11:41:59;;;;;;;;;;;;;;;10.35;62.99;99760.50;5464238;32;34841;-72
2023/12/24 11:45:01;;;;;;;;;;;;;;;10.21;63.66;99763.75;5464118;32;35551;-71
2023/12/24 11:48:03;;;;;;;;;;;;;;;10.60;63.04;99754.91;5460564;32;34610;-73
2023/12/24 11:51:07;;;;;;;;;;;;;;;10.30;62.73;99752.88;5475156;32;34681;-71
2023/12/24 11:54:09;;;;;;;;;;;;;;;10.38;63.31;99738.50;5464187;32;35250;-70
2023/12/24 11:57:11;;;;;;;;;;;;;;;10.96;61.67;99741.72;5460036;32;35455;-69
2023/12/24 12:00:14;;;;;;;;;;;;;;;10.22;63.22;99741.81;5458898;32;34963;-69
2023/12/24 12:03:18;;;;;;;;;;;;;;;10.88;61.69;99733.34;5462511;32;35428;-69
2023/12/24 12:06:20;;;;;;;;;;;;;;;11.30;60.27;99721.56;5464156;32;34790;-72
2023/12/24 12:09:22;;;;;;;;;;;;;;;10.61;61.18;99711.94;5461521;32;34761;-69
2023/12/24 12:12:25;;;;;;;;;;;;;;;10.83;60.59;99704.69;5448594;32;34736;-70
2023/12/24 12:15:27;;;;;;;;;;;;;;;11.25;58.91;99706.00;5441725;32;34983;-70
2023/12/24 12:18:29;;;;;;;;;;;;;;;10.75;60.63;99706.81;5464450;32;34392;-72
2023/12/24 12:21:31;;;;;;;;;;;;;;;11.10;58.75;99709.44;5461008;32;35519;-71
2023/12/24 12:24:34;;;;;;;;;;;;;;;10.39;61.32;99712.16;5462302;32;34280;-69
2023/12/24 12:27:36;;;;;;;;;;;;;;;11.24;59.21;99706.94;5463808;32;35563;-70
2023/12/24 12:30:38;;;;;;;;;;;;;;;11.44;57.83;99712.94;5439307;32;35469;-71
2023/12/24 12:33:41;;;;;;;;;;;;;;;11.38;57.39;99706.22;5464641;32;35373;-71
2023/12/24 12:36:45;;;;;;;;;;;;;;;11.53;57.22;99712.47;5443344;32;35322;-72
2023/12/24 12:39:47;;;;;;;;;;;;;;;12.10;55.72;99705.78;5443794;32;34295;-72
2023/12/24 12:42:53;;;;;;;;;;;;;;;12.11;54.88;99723.31;5441514;32;34898;-73
2023/12/24 12:45:55;;;;;;;;;;;;;;;12.16;54.44;99721.25;5460881;32;34695;-72
2023/12/24 12:48:58;;;;;;;;;;;;;;;11.88;55.27;99721.94;5464487;32;34184;-72
2023/12/24 12:52:00;;;;;;;;;;;;;;;12.32;53.88;99723.88;5441757;32;35031;-71
2023/12/24 12:55:03;;;;;;;;;;;;;;;12.06;53.84;99730.62;5452255;32;35021;-69
2023/12/24 12:58:12;;;;;;;;;;;;;;;11.76;54.14;99738.38;5460133;32;35461;-72
2023/12/24 13:01:23;;;;;;;;;;;;;;;12.00;54.24;99733.59;5463467;32;34293;-72
2023/12/24 13:04:37;;;;;;;;;;;;;;;12.25;53.47;99722.53;5463574;32;35035;-70
2023/12/24 13:07:58;;;;;;;;;;;;;;;12.26;53.26;99721.59;5448393;32;34841;-72
2023/12/24 13:11:05;;;;;;;;;;;;;;;11.86;53.61;99729.09;5450448;32;35019;-71
2023/12/24 13:14:08;;;;;;;;;;;;;;;12.24;53.94;99735.81;5460332;32;34252;-72
2023/12/24 13:17:10;;;;;;;;;;;;;;;12.55;51.80;99740.16;5463902;32;34795;-74
2023/12/24 13:20:13;;;;;;;;;;;;;;;12.05;52.55;99733.34;5457595;32;34607;-70
2023/12/24 13:23:15;;;;;;;;;;;;;;;12.47;51.88;99730.91;5465214;32;33175;-71
2023/12/24 13:26:24;;;;;;;;;;;;;;;12.59;51.47;99732.00;5463961;32;35527;-71
2023/12/24 13:29:27;;;;;;;;;;;;;;;12.39;51.95;99730.50;5459920;32;34802;-70
2023/12/24 13:32:29;;;;;;;;;;;;;;;13.13;49.93;99720.91;5447499;32;35493;-71
2023/12/24 13:35:33;;;;;;;;;;;;;;;13.07;50.40;99716.00;5459755;32;35159;-72
2023/12/24 13:38:37;;;;;;;;;;;;;;;12.32;51.17;99715.97;5461861;32;34433;-74
2023/12/24 13:41:39;;;;;;;;;;;;;;;12.57;51.32;99709.31;5461795;32;35664;-70
2023/12/24 13:44:42;;;;;;;;;;;;;;;13.01;50.74;99720.72;5459475;32;35743;-72
2023/12/24 13:47:44;;;;;;;;;;;;;;;13.54;49.89;99723.72;5464215;32;35026;-71
2023/12/24 13:50:47;;;;;;;;;;;;;;;12.98;49.59;99736.72;5456892;32;34658;-70
2023/12/24 13:53:49;;;;;;;;;;;;;;;12.01;51.08;99737.06;5461372;32;34605;-73
2023/12/24 13:56:51;;;;;;;;;;;;;;;13.11;49.15;99733.34;5444361;32;34600;-70
2023/12/24 13:59:54;;;;;;;;;;;;;;;12.57;50.33;99738.31;5441389;32;34766;-73
2023/12/24 14:02:56;;;;;;;;;;;;;;;12.98;51.27;99742.00;5461575;32;35178;-72
2023/12/24 14:05:58;;;;;;;;;;;;;;;11.99;54.33;99754.75;5439520;32;34320;-72
2023/12/24 14:09:09;;;;;;;;;;;;;;;11.87;54.82;99746.56;5462513;32;35533;-70
2023/12/24 14:12:34;;;;;;;;;;;;;;;11.73;55.03;99743.81;5380591;32;35249;-74
2023/12/24 14:15:36;;;;;;;;;;;;;;;11.54;55.26;99753.62;5386508;32;35356;-70
2023/12/24 14:18:38;;;;;;;;;;;;;;;11.85;55.15;99752.84;5372203;32;35417;-72
2023/12/24 14:21:41;;;;;;;;;;;;;;;11.27;57.39;99762.03;5381729;32;35374;-74
2023/12/24 14:24:44;;;;;;;;;;;;;;;10.84;58.79;99764.22;5387390;32;36585;-73
2023/12/24 14:27:47;;;;;;;;;;;;;;;10.54;60.16;99750.81;5378663;32;34258;-70
2023/12/24 14:30:50;;;;;;;;;;;;;;;10.43;60.54;99768.88;5387025;32;35464;-70
2023/12/24 14:33:52;;;;;;;;;;;;;;;10.15;61.59;99758.78;5381835;32;35313;-70
2023/12/24 14:36:54;;;;;;;;;;;;;;;10.14;62.53;99758.88;5381645;32;34643;-72
2023/12/24 14:39:57;;;;;;;;;;;;;;;9.46;64.29;99771.59;5383938;32;34953;-70
2023/12/24 14:42:59;;;;;;;;;;;;;;;10.04;62.39;99768.94;5379375;32;35327;-70
2023/12/24 14:46:01;;;;;;;;;;;;;;;10.60;61.07;99768.06;5386698;32;35360;-72
2023/12/24 14:49:03;;;;;;;;;;;;;;;10.74;60.90;99756.84;5369137;32;34974;-72
2023/12/24 14:52:06;;;;;;;;;;;;;;;10.94;59.84;99766.38;5383873;32;34047;-71
2023/12/24 14:55:09;;;;;;;;;;;;;;;10.73;60.33;99771.78;5384208;32;35176;-70
2023/12/24 14:58:11;;;;;;;;;;;;;;;11.35;59.23;99775.62;5403592;32;34660;-72
2023/12/24 15:01:13;;;;;;;;;;;;;;;11.34;58.99;99776.56;5403823;32;35063;-71
2023/12/24 15:04:15;;;;;;;;;;;;;;;11.70;57.27;99780.81;5400614;32;34160;-73
2023/12/24 15:07:17;;;;;;;;;;;;;;;11.39;57.44;99787.69;5405167;32;35422;-72
2023/12/24 15:10:19;;;;;;;;;;;;;;;10.51;60.82;99792.16;5400990;32;34866;-72
2023/12/24 15:13:21;;;;;;;;;;;;;;;11.51;57.55;99785.34;5405142;32;35262;-71
2023/12/24 15:16:24;;;;;;;;;;;;;;;11.27;58.11;99798.88;5387124;32;35320;-73
2023/12/24 15:19:26;;;;;;;;;;;;;;;11.62;56.88;99794.41;5402913;32;34345;-73
2023/12/24 15:22:28;;;;;;;;;;;;;;;11.69;56.87;99794.91;5435993;32;35048;-69
2023/12/24 15:25:30;;;;;;;;;;;;;;;11.51;57.05;99794.09;5440667;32;35020;-70
2023/12/24 15:28:33;;;;;;;;;;;;;;;11.55;57.11;99802.69;5465798;32;34451;-70
2023/12/24 15:31:35;;;;;;;;;;;;;;;11.33;57.88;99814.34;5460849;32;35078;-72
2023/12/24 15:34:38;;;;;;;;;;;;;;;11.31;57.84;99810.91;5466633;32;35334;-70
2023/12/24 15:37:40;;;;;;;;;;;;;;;11.50;57.43;99809.97;5461059;32;35045;-72
2023/12/24 15:40:43;;;;;;;;;;;;;;;11.25;57.74;99815.63;5442667;32;34191;-69
2023/12/24 15:43:45;;;;;;;;;;;;;;;11.25;58.33;99816.50;5464695;32;35482;-73
2023/12/24 15:46:47;;;;;;;;;;;;;;;11.39;58.54;99814.00;5460566;32;34397;-73
2023/12/24 15:49:51;;;;;;;;;;;;;;;11.37;58.62;99829.03;5464783;32;35241;-73
2023/12/24 15:52:53;;;;;;;;;;;;;;;11.20;59.01;99823.75;5458619;32;35462;-71
2023/12/24 15:55:56;;;;;;;;;;;;;;;11.24;58.71;99835.84;5446718;32;35264;-70
2023/12/24 15:58:58;;;;;;;;;;;;;;;11.83;56.78;99829.28;5460891;32;34882;-71